Audubon, Illinois
Current Conditions -  °F | °C
As of 5:35 AM on Friday 31 Oct 2014 (Local Time) from KTAZ Reporting Station
Overcast Overcast  
Wind Chill: 38°   Ceiling: 5000
Heat Index: 45°   Visibility: 10mi
Dew Point: 41°   Wind: 14mph
Humidity: 87%   Direction: 330°NNW
Pressure: 30.1"   Gusts: NA
Location:  39.3183°N, 89.2952°W
Report Text: KTAZ 311035Z AUTO 33012KT 10SM SCT044 BKN050 OVC065 07/05 A3010 RMK AO2
Loading
Personal Weather Stations






























Interactive Weather Map
Tropical Storm Tracking
New forecast layout! Learn more

10-Day Weather Forecast

Advertisements
Track Severe Weather on mobile